Terminal Aerodrome Forecast
Issued by NWS

Home | Current Version | Previous Version | Text Only | Print | Product List | Glossary On
Versions: 1 2 3 4 5 6 7 8 9 10 11 12 13 14 15 16
000
FTUS42 KTBW 251733
TAFPIE
TAF
KPIE 251733Z 2518/2618 10008KT P6SM SCT040 SCT250
     FM252000 VRB05KT P6SM SCT050 SCT250
     FM260200 11006KT P6SM FEW040 BKN250
     FM261300 13008KT P6SM SCT045 SCT150=

USA.gov is the U.S. government's official web portal to all federal, state and local government web resources and services.